Aden, IL

6:11 AM CDT on July 26, 2014 (GMT -0500)
Fairfield Municipal (KFWC) Elev 436 ft | 38.38 °N, 88.41 °W | Change Station

Current weather conditions updated 16 minutes ago

Scattered Clouds
Scattered Clouds
66 °F
Feels Like 66 °F
N
6
Wind Variable Wind from South

Today is forecast to be Much Warmer than yesterday. Isolated thunderstorms tonight.

Today
High -- | Low -- °F
--% Chance of Precip.
Yesterday
High -- | Low -- °F
Precip. -- in
5:51 AM 8:09 PM
Waning Crescent, 0% visible
Pressure 29.93 in
Visibility 10.0 miles
Clouds Scattered Clouds 10000 ft
Dew Point 64 °F
Humidity 94%
Rainfall 0.00 in
Snow Depth Not available.
UV 0 out of 12
Pollen 5.00 out of 12
Air Quality Not available.
Flu Activity Not available.
METAR KFWC 261055Z AUTO 19005KT 10SM SCT100 19/18 A2993 RMK AO2 LTG DSNT W

More Conditions Fewer Conditions

Pressure 29.93 in
Visibility 10.0 miles
Clouds Scattered Clouds 10000 ft
Dew Point 64 °F
Humidity 94%
Rainfall 0.00 in
Snow Depth Not available.
UV 0 out of 12
Pollen 5.00 out of 12
Air Quality Not available.
Flu Activity Not available.
METAR KFWC 261055Z AUTO 19005KT 10SM SCT100 19/18 A2993 RMK AO2 LTG DSNT W

More Conditions Fewer Conditions

10-Day Weather Forecast

Almanac

Astronomy

Jul. 26, 2014 Rise Set
Actual Time 5:51 AM CDT 8:09 PM CDT
Civil Twilight 5:21 AM CDT 8:39 PM CDT
Nautical Twilight 4:44 AM CDT 9:16 PM CDT
Astronomical Twilight 4:04 AM CDT 9:56 PM CDT
Moon 5:43 AM CDT 7:45 PM CDT
Length of Visible Light 15h 18m
Length of Day
14h 18m
Tomorrow will be 1m 41s shorter.
Waning Crescent, 0% of the Moon is Illuminated
Today
Waning Crescent
Jul 26
New
Aug 3
First Quarter
Aug 10
Full
Aug 17
Last Quarter

Today's Extremes

State Highs State Lows

Community

WunderPhotos

Upload Photos

1,737,529 photos uploaded!

Nearby

Snow Depth

Station Depth Elevation
No new snow has been reported.

Earthquake Activity

City Distance Mag. Time & Date
No recent earthquake activity has been reported nearby.
Minimum magnitude displayed is 2.5.

Coastal Water Temperatures

Place Temperature
No Stations Reporting

Nearby Weather Stations

Station Location Temp. Dew Point Humidity Wind Precip. Elev Updated Type
MesoWest BAKRVL , Bonnie, IL 69 °F - - North  at  - 0.00 in / hr 421 ft 4:40 AM CDT MADIS
Middleton Street Weather, Iuka, IL 68.1 °F 57 °F 67% WSW  at  3.6 mph 0.00 in / hr 518 ft 6:11 AM CDT Rapid Fire

Show More Stations Show Fewer Stations